Terminal Aerodrome Forecast
Issued by NWS

Home | Current Version | Previous Version | Text Only | Print | Product List | Glossary On
Versions: 1 2 3 4 5 6 7 8 9 10 11 12
000
FTAK31 PAJN 051122
TAFAWG
TAF
PAWG 051122Z 0512/0612 14004KT P6SM VCSH SCT050 BKN070 OVC090
     FM051600 12008KT P6SM -RA BKN030 OVC050
     FM052100 11006KT P6SM -SHRA SCT030 OVC040
     FM060300 VRB02KT P6SM VCSH SCT025 BKN040 OVC060
     FM060900 12005KT P6SM -SHRA BKN025 OVC040
      AMD LTD TO CLD VIS AND WIND 0512/0515=

USA.gov is the U.S. government's official web portal to all federal, state and local government web resources and services.